sensor_id;sensor_type;location;lat;lon;timestamp;pressure;altitude;pressure_sealevel;temperature;humidity
71559;BME280;59382;43.852;25.952;2022-12-29T00:02:17;102412.19;;;7.21;56.91
71559;BME280;59382;43.852;25.952;2022-12-29T00:04:43;102385.13;;;7.05;57.07
71559;BME280;59382;43.852;25.952;2022-12-29T00:07:09;102421.03;;;7.31;56.75
71559;BME280;59382;43.852;25.952;2022-12-29T00:09:35;102415.97;;;7.28;57.06
71559;BME280;59382;43.852;25.952;2022-12-29T00:12:01;102432.47;;;7.33;57.01
71559;BME280;59382;43.852;25.952;2022-12-29T00:14:28;102429.09;;;7.31;56.72
71559;BME280;59382;43.852;25.952;2022-12-29T00:17:13;102419.81;;;7.16;56.68
71559;BME280;59382;43.852;25.952;2022-12-29T00:19:39;102417.44;;;7.13;56.57
71559;BME280;59382;43.852;25.952;2022-12-29T00:22:24;102435.94;;;7.16;56.45
71559;BME280;59382;43.852;25.952;2022-12-29T00:25:11;102432.66;;;6.95;57.08
71559;BME280;59382;43.852;25.952;2022-12-29T00:27:56;102438.59;;;6.89;56.94
71559;BME280;59382;43.852;25.952;2022-12-29T00:30:41;102440.28;;;6.90;57.32
71559;BME280;59382;43.852;25.952;2022-12-29T00:33:29;102438.59;;;6.89;57.34
71559;BME280;59382;43.852;25.952;2022-12-29T00:36:22;102440.72;;;6.85;57.37
71559;BME280;59382;43.852;25.952;2022-12-29T00:39:02;102414.91;;;6.75;57.80
71559;BME280;59382;43.852;25.952;2022-12-29T00:41:48;102429.13;;;6.85;57.20
71559;BME280;59382;43.852;25.952;2022-12-29T00:44:35;102432.09;;;6.91;57.50
71559;BME280;59382;43.852;25.952;2022-12-29T00:47:01;102422.75;;;6.95;57.41
71559;BME280;59382;43.852;25.952;2022-12-29T00:49:32;102425.69;;;7.02;57.43
71559;BME280;59382;43.852;25.952;2022-12-29T00:51:59;102433.16;;;7.08;57.29
71559;BME280;59382;43.852;25.952;2022-12-29T00:54:29;102430.63;;;7.06;57.19
71559;BME280;59382;43.852;25.952;2022-12-29T00:56:55;102418.19;;;7.05;57.15
71559;BME280;59382;43.852;25.952;2022-12-29T00:59:22;102420.41;;;7.10;56.83
71559;BME280;59382;43.852;25.952;2022-12-29T01:01:50;102416.47;;;7.14;56.65
71559;BME280;59382;43.852;25.952;2022-12-29T01:04:16;102413.47;;;7.17;56.87
71559;BME280;59382;43.852;25.952;2022-12-29T01:06:41;102406.69;;;7.13;57.23
71559;BME280;59382;43.852;25.952;2022-12-29T01:09:08;102420.69;;;7.16;56.81
71559;BME280;59382;43.852;25.952;2022-12-29T01:11:53;102400.75;;;6.92;57.47
71559;BME280;59382;43.852;25.952;2022-12-29T01:14:19;102403.22;;;7.03;57.16
71559;BME280;59382;43.852;25.952;2022-12-29T01:16:48;102390.25;;;6.98;57.02
71559;BME280;59382;43.852;25.952;2022-12-29T01:19:15;102390.25;;;6.98;57.45
71559;BME280;59382;43.852;25.952;2022-12-29T01:21:41;102378.41;;;6.91;57.36
71559;BME280;59382;43.852;25.952;2022-12-29T01:24:06;102394.16;;;7.04;57.41
71559;BME280;59382;43.852;25.952;2022-12-29T01:26:32;102372.91;;;6.93;57.57
71559;BME280;59382;43.852;25.952;2022-12-29T01:28:57;102380.38;;;6.99;57.67
71559;BME280;59382;43.852;25.952;2022-12-29T01:31:26;102347.41;;;6.79;57.44
71559;BME280;59382;43.852;25.952;2022-12-29T01:33:54;102378.53;;;6.99;57.70
71559;BME280;59382;43.852;25.952;2022-12-29T01:36:19;102390.81;;;7.02;57.51
71559;BME280;59382;43.852;25.952;2022-12-29T01:38:45;102362.06;;;6.85;57.66
71559;BME280;59382;43.852;25.952;2022-12-29T01:41:14;102373.06;;;6.82;57.45
71559;BME280;59382;43.852;25.952;2022-12-29T01:43:52;102384.38;;;6.85;57.50
71559;BME280;59382;43.852;25.952;2022-12-29T01:46:22;102388.59;;;6.88;57.54
71559;BME280;59382;43.852;25.952;2022-12-29T01:49:13;102391.28;;;6.88;57.71
71559;BME280;59382;43.852;25.952;2022-12-29T01:51:47;102380.44;;;6.80;57.65
71559;BME280;59382;43.852;25.952;2022-12-29T01:54:19;102380.44;;;6.80;57.85
71559;BME280;59382;43.852;25.952;2022-12-29T01:56:49;102351.69;;;6.63;57.57
71559;BME280;59382;43.852;25.952;2022-12-29T01:59:20;102369.31;;;6.75;57.82
71559;BME280;59382;43.852;25.952;2022-12-29T02:01:51;102358.16;;;6.70;58.04
71559;BME280;59382;43.852;25.952;2022-12-29T02:04:16;102344.06;;;6.58;57.97
71559;BME280;59382;43.852;25.952;2022-12-29T02:06:53;102378.78;;;6.69;57.43
71559;BME280;59382;43.852;25.952;2022-12-29T02:09:21;102374.53;;;6.67;58.14
71559;BME280;59382;43.852;25.952;2022-12-29T02:11:51;102362.41;;;6.63;57.96
71559;BME280;59382;43.852;25.952;2022-12-29T02:14:20;102355.25;;;6.54;58.28
71559;BME280;59382;43.852;25.952;2022-12-29T02:35:08;102306.63;;;6.30;58.11
71559;BME280;59382;43.852;25.952;2022-12-29T02:37:48;102331.97;;;6.45;57.97
71559;BME280;59382;43.852;25.952;2022-12-29T02:41:05;102347.19;;;6.54;58.31
71559;BME280;59382;43.852;25.952;2022-12-29T02:43:30;102341.84;;;6.54;58.35
71559;BME280;59382;43.852;25.952;2022-12-29T02:46:43;102344.66;;;6.52;57.95
71559;BME280;59382;43.852;25.952;2022-12-29T02:49:40;102341.44;;;6.49;58.03
71559;BME280;59382;43.852;25.952;2022-12-29T02:52:35;102328.06;;;6.39;57.69
71559;BME280;59382;43.852;25.952;2022-12-29T02:55:18;102330.88;;;6.38;58.10
71559;BME280;59382;43.852;25.952;2022-12-29T02:57:45;102333.00;;;6.34;58.33
71559;BME280;59382;43.852;25.952;2022-12-29T03:00:22;102350.66;;;6.37;57.73
71559;BME280;59382;43.852;25.952;2022-12-29T03:06:05;102333.56;;;6.28;57.78
71559;BME280;59382;43.852;25.952;2022-12-29T03:08:49;102316.38;;;6.12;57.65
71559;BME280;59382;43.852;25.952;2022-12-29T03:11:23;102327.69;;;6.15;58.15
71559;BME280;59382;43.852;25.952;2022-12-29T03:14:22;102329.41;;;6.07;58.38
71559;BME280;59382;43.852;25.952;2022-12-29T03:20:08;102337.84;;;6.12;58.00
71559;BME280;59382;43.852;25.952;2022-12-29T03:22:40;102324.72;;;6.08;57.94
71559;BME280;59382;43.852;25.952;2022-12-29T03:25:11;102333.47;;;6.11;57.82
71559;BME280;59382;43.852;25.952;2022-12-29T03:27:42;102328.41;;;6.07;57.53
71559;BME280;59382;43.852;25.952;2022-12-29T03:30:10;102339.41;;;6.14;57.46
71559;BME280;59382;43.852;25.952;2022-12-29T03:32:42;102332.06;;;6.07;57.96
71559;BME280;59382;43.852;25.952;2022-12-29T03:35:10;102363.91;;;6.29;57.84
71559;BME280;59382;43.852;25.952;2022-12-29T03:37:45;102336.28;;;6.19;58.07
71559;BME280;59382;43.852;25.952;2022-12-29T03:40:14;102353.19;;;6.29;57.55
71559;BME280;59382;43.852;25.952;2022-12-29T03:42:40;102354.06;;;6.29;57.75
71559;BME280;59382;43.852;25.952;2022-12-29T03:45:07;102335.88;;;6.14;58.08
71559;BME280;59382;43.852;25.952;2022-12-29T03:47:36;102327.53;;;6.17;57.87
71559;BME280;59382;43.852;25.952;2022-12-29T03:50:02;102350.66;;;6.27;57.95
71559;BME280;59382;43.852;25.952;2022-12-29T03:52:27;102347.84;;;6.29;57.78
71559;BME280;59382;43.852;25.952;2022-12-29T03:54:53;102345.72;;;6.32;57.50
71559;BME280;59382;43.852;25.952;2022-12-29T03:57:18;102339.38;;;6.24;57.63
71559;BME280;59382;43.852;25.952;2022-12-29T03:59:47;102349.78;;;6.36;57.45
71559;BME280;59382;43.852;25.952;2022-12-29T04:02:15;102349.22;;;6.33;57.80
71559;BME280;59382;43.852;25.952;2022-12-29T04:04:41;102326.00;;;6.14;57.52
71559;BME280;59382;43.852;25.952;2022-12-29T04:07:06;102356.72;;;6.29;57.39
71559;BME280;59382;43.852;25.952;2022-12-29T04:09:32;102359.41;;;6.29;57.46
71559;BME280;59382;43.852;25.952;2022-12-29T04:12:00;102362.38;;;6.26;57.44
71559;BME280;59382;43.852;25.952;2022-12-29T04:14:25;102341.78;;;6.17;57.29
71559;BME280;59382;43.852;25.952;2022-12-29T04:16:51;102337.69;;;6.13;57.43
71559;BME280;59382;43.852;25.952;2022-12-29T04:19:16;102335.44;;;6.08;57.35
71559;BME280;59382;43.852;25.952;2022-12-29T04:21:42;102356.88;;;6.18;57.58
71559;BME280;59382;43.852;25.952;2022-12-29T04:24:08;102354.91;;;6.11;57.53
71559;BME280;59382;43.852;25.952;2022-12-29T04:26:34;102353.81;;;6.03;57.15
71559;BME280;59382;43.852;25.952;2022-12-29T04:28:59;102369.31;;;6.10;57.47
71559;BME280;59382;43.852;25.952;2022-12-29T04:31:25;102356.06;;;5.98;58.00
71559;BME280;59382;43.852;25.952;2022-12-29T04:33:50;102344.50;;;5.88;57.78
71559;BME280;59382;43.852;25.952;2022-12-29T04:36:16;102373.56;;;6.03;57.61
71559;BME280;59382;43.852;25.952;2022-12-29T04:38:41;102366.22;;;5.95;57.53
71559;BME280;59382;43.852;25.952;2022-12-29T04:41:07;102366.78;;;5.98;57.94
71559;BME280;59382;43.852;25.952;2022-12-29T04:43:32;102358.63;;;5.90;58.17
71559;BME280;59382;43.852;25.952;2022-12-29T04:46:01;102362.69;;;5.94;58.14
71559;BME280;59382;43.852;25.952;2022-12-29T04:48:27;102373.56;;;6.03;57.71
71559;BME280;59382;43.852;25.952;2022-12-29T04:50:52;102358.03;;;5.96;58.05
71559;BME280;59382;43.852;25.952;2022-12-29T04:53:21;102371.03;;;6.01;57.62
71559;BME280;59382;43.852;25.952;2022-12-29T04:55:51;102377.91;;;6.03;57.99
71559;BME280;59382;43.852;25.952;2022-12-29T04:58:21;102383.69;;;6.08;57.91
71559;BME280;59382;43.852;25.952;2022-12-29T05:00:46;102378.63;;;6.06;58.09
71559;BME280;59382;43.852;25.952;2022-12-29T05:03:12;102397.22;;;6.07;57.56
71559;BME280;59382;43.852;25.952;2022-12-29T05:05:38;102365.50;;;5.93;57.66
71559;BME280;59382;43.852;25.952;2022-12-29T05:08:03;102389.63;;;6.03;57.49
71559;BME280;59382;43.852;25.952;2022-12-29T05:10:29;102392.47;;;6.01;58.02
71559;BME280;59382;43.852;25.952;2022-12-29T05:13:03;102383.97;;;5.96;57.90
71559;BME280;59382;43.852;25.952;2022-12-29T05:15:29;102383.97;;;5.86;57.71
71559;BME280;59382;43.852;25.952;2022-12-29T05:17:57;102394.41;;;5.89;58.44
71559;BME280;59382;43.852;25.952;2022-12-29T05:20:23;102384.78;;;5.77;58.00
71559;BME280;59382;43.852;25.952;2022-12-29T05:22:49;102405.81;;;5.82;58.56
71559;BME280;59382;43.852;25.952;2022-12-29T05:25:19;102391.53;;;5.72;58.27
71559;BME280;59382;43.852;25.952;2022-12-29T05:27:48;102400.84;;;5.77;58.57
71559;BME280;59382;43.852;25.952;2022-12-29T05:30:13;102392.53;;;5.80;58.25
71559;BME280;59382;43.852;25.952;2022-12-29T05:32:39;102384.50;;;5.80;58.04
71559;BME280;59382;43.852;25.952;2022-12-29T05:35:05;102385.06;;;5.74;58.47
71559;BME280;59382;43.852;25.952;2022-12-29T05:37:31;102377.44;;;5.60;58.40
71559;BME280;59382;43.852;25.952;2022-12-29T05:39:56;102382.22;;;5.57;58.38
71559;BME280;59382;43.852;25.952;2022-12-29T05:42:22;102370.34;;;5.40;58.29
71559;BME280;59382;43.852;25.952;2022-12-29T05:44:47;102381.66;;;5.44;58.92
71559;BME280;59382;43.852;25.952;2022-12-29T05:47:15;102321.69;;;5.16;59.01
71559;BME280;59382;43.852;25.952;2022-12-29T05:49:40;102347.81;;;5.33;58.67
71559;BME280;59382;43.852;25.952;2022-12-29T05:52:06;102363.16;;;5.31;58.98
71559;BME280;59382;43.852;25.952;2022-12-29T05:54:32;102377.06;;;5.25;59.00
71559;BME280;59382;43.852;25.952;2022-12-29T05:57:08;102380.28;;;5.19;59.61
71559;BME280;59382;43.852;25.952;2022-12-29T05:59:36;102381.56;;;5.15;59.65
71559;BME280;59382;43.852;25.952;2022-12-29T06:02:11;102357.03;;;5.01;59.81
71559;BME280;59382;43.852;25.952;2022-12-29T06:04:39;102378.63;;;5.18;59.81
71559;BME280;59382;43.852;25.952;2022-12-29T06:07:20;102363.28;;;5.20;59.22
71559;BME280;59382;43.852;25.952;2022-12-29T06:09:49;102367.81;;;5.29;59.48
71559;BME280;59382;43.852;25.952;2022-12-29T06:12:16;102368.66;;;5.39;59.02
71559;BME280;59382;43.852;25.952;2022-12-29T06:14:53;102372.91;;;5.42;58.77
71559;BME280;59382;43.852;25.952;2022-12-29T06:17:22;102373.44;;;5.26;58.62
71559;BME280;59382;43.852;25.952;2022-12-29T06:19:57;102376.53;;;5.22;58.50
71559;BME280;59382;43.852;25.952;2022-12-29T06:22:25;102377.34;;;5.22;58.60
71559;BME280;59382;43.852;25.952;2022-12-29T06:24:57;102369.19;;;5.14;58.66
71559;BME280;59382;43.852;25.952;2022-12-29T06:27:23;102315.97;;;4.81;59.13
71559;BME280;59382;43.852;25.952;2022-12-29T06:29:52;102348.53;;;4.96;58.62
71559;BME280;59382;43.852;25.952;2022-12-29T06:32:28;102380.56;;;5.16;58.75
71559;BME280;59382;43.852;25.952;2022-12-29T06:35:00;102371.44;;;5.19;58.52
71559;BME280;59382;43.852;25.952;2022-12-29T06:37:25;102388.69;;;5.35;58.75
71559;BME280;59382;43.852;25.952;2022-12-29T06:39:59;102400.25;;;5.45;58.12
71559;BME280;59382;43.852;25.952;2022-12-29T06:42:34;102387.84;;;5.44;58.46
71559;BME280;59382;43.852;25.952;2022-12-29T06:45:03;102386.72;;;5.47;57.92
71559;BME280;59382;43.852;25.952;2022-12-29T06:47:35;102390.94;;;5.49;58.44
71559;BME280;59382;43.852;25.952;2022-12-29T06:50:04;102395.19;;;5.52;58.30
71559;BME280;59382;43.852;25.952;2022-12-29T06:52:30;102400.84;;;5.49;58.56
71559;BME280;59382;43.852;25.952;2022-12-29T06:54:55;102409.00;;;5.47;58.44
71559;BME280;59382;43.852;25.952;2022-12-29T06:57:24;102368.31;;;5.14;58.55
71559;BME280;59382;43.852;25.952;2022-12-29T06:59:57;102416.31;;;5.45;59.19
71559;BME280;59382;43.852;25.952;2022-12-29T07:02:27;102385.25;;;5.24;58.88
71559;BME280;59382;43.852;25.952;2022-12-29T07:04:58;102417.72;;;5.40;58.50
71559;BME280;59382;43.852;25.952;2022-12-29T07:07:23;102438.28;;;5.39;58.88
71559;BME280;59382;43.852;25.952;2022-12-29T07:09:49;102426.16;;;5.35;59.32
71559;BME280;59382;43.852;25.952;2022-12-29T07:12:15;102421.94;;;5.42;59.41
71559;BME280;59382;43.852;25.952;2022-12-29T07:14:40;102405.88;;;5.42;58.81
71559;BME280;59382;43.852;25.952;2022-12-29T07:17:06;102414.22;;;5.58;58.96
71559;BME280;59382;43.852;25.952;2022-12-29T07:19:35;102426.84;;;5.86;58.52
71559;BME280;59382;43.852;25.952;2022-12-29T07:22:00;102433.91;;;6.16;58.38
71559;BME280;59382;43.852;25.952;2022-12-29T07:24:26;102432.19;;;6.34;57.48
71559;BME280;59382;43.852;25.952;2022-12-29T07:26:52;102428.13;;;6.40;57.41
71559;BME280;59382;43.852;25.952;2022-12-29T07:29:18;102434.69;;;6.55;57.13
71559;BME280;59382;43.852;25.952;2022-12-29T07:31:43;102427.38;;;6.57;57.59
71559;BME280;59382;43.852;25.952;2022-12-29T07:34:09;102432.44;;;6.60;57.20
71559;BME280;59382;43.852;25.952;2022-12-29T07:36:35;102425.69;;;6.56;57.22
71559;BME280;59382;43.852;25.952;2022-12-29T07:39:01;102430.75;;;6.59;57.43
71559;BME280;59382;43.852;25.952;2022-12-29T07:41:27;102411.41;;;6.55;57.02
71559;BME280;59382;43.852;25.952;2022-12-29T07:43:52;102418.88;;;6.61;57.27
71559;BME280;59382;43.852;25.952;2022-12-29T07:46:18;102404.38;;;6.54;57.69
71559;BME280;59382;43.852;25.952;2022-12-29T07:48:43;102424.63;;;6.76;57.43
71559;BME280;59382;43.852;25.952;2022-12-29T07:51:09;102429.41;;;6.82;57.16
71559;BME280;59382;43.852;25.952;2022-12-29T07:53:35;102412.94;;;6.67;57.26
71559;BME280;59382;43.852;25.952;2022-12-29T07:56:00;102420.56;;;6.72;57.41
71559;BME280;59382;43.852;25.952;2022-12-29T07:58:26;102417.47;;;6.67;56.87
71559;BME280;59382;43.852;25.952;2022-12-29T08:00:55;102419.75;;;6.62;57.28
71559;BME280;59382;43.852;25.952;2022-12-29T08:03:22;102424.53;;;6.68;57.27
71559;BME280;59382;43.852;25.952;2022-12-29T08:05:48;102382.63;;;6.48;57.48
71559;BME280;59382;43.852;25.952;2022-12-29T08:08:14;102413.22;;;6.74;57.00
71559;BME280;59382;43.852;25.952;2022-12-29T08:10:40;102352.34;;;6.38;56.91
71559;BME280;59382;43.852;25.952;2022-12-29T08:13:06;102423.66;;;6.77;57.22
71559;BME280;59382;43.852;25.952;2022-12-29T08:15:31;102387.03;;;6.49;57.15
71559;BME280;59382;43.852;25.952;2022-12-29T08:17:57;102411.84;;;6.51;57.26
71559;BME280;59382;43.852;25.952;2022-12-29T08:20:23;102428.50;;;6.54;57.54
71559;BME280;59382;43.852;25.952;2022-12-29T08:22:48;102423.69;;;6.58;57.49
71559;BME280;59382;43.852;25.952;2022-12-29T08:25:17;102423.97;;;6.64;57.59
71559;BME280;59382;43.852;25.952;2022-12-29T08:28:10;102427.59;;;6.73;57.36
71559;BME280;59382;43.852;25.952;2022-12-29T08:31:00;102416.88;;;6.73;57.45
71559;BME280;59382;43.852;25.952;2022-12-29T08:33:29;102422.78;;;6.86;57.88
71559;BME280;59382;43.852;25.952;2022-12-29T08:36:11;102418.00;;;6.80;57.67
71559;BME280;59382;43.852;25.952;2022-12-29T08:38:42;102414.25;;;6.63;58.38
71559;BME280;59382;43.852;25.952;2022-12-29T08:41:11;102425.53;;;6.48;58.38
71559;BME280;59382;43.852;25.952;2022-12-29T08:44:26;102420.75;;;6.42;58.98
71559;BME280;59382;43.852;25.952;2022-12-29T08:46:55;102418.38;;;6.39;58.71
71559;BME280;59382;43.852;25.952;2022-12-29T08:49:27;102407.91;;;6.36;58.67
71559;BME280;59382;43.852;25.952;2022-12-29T08:52:02;102389.59;;;6.31;58.76
71559;BME280;59382;43.852;25.952;2022-12-29T08:54:41;102377.03;;;6.32;59.14
71559;BME280;59382;43.852;25.952;2022-12-29T08:57:12;102390.41;;;6.51;59.08
71559;BME280;59382;43.852;25.952;2022-12-29T08:59:40;102382.50;;;6.59;58.90
71559;BME280;59382;43.852;25.952;2022-12-29T09:02:12;102386.13;;;6.67;58.87
71559;BME280;59382;43.852;25.952;2022-12-29T09:04:40;102410.06;;;6.88;58.81
71559;BME280;59382;43.852;25.952;2022-12-29T09:07:09;102402.38;;;7.02;58.69
71559;BME280;59382;43.852;25.952;2022-12-29T09:09:35;102388.91;;;7.12;58.54
71559;BME280;59382;43.852;25.952;2022-12-29T09:12:01;102394.31;;;7.29;58.00
71559;BME280;59382;43.852;25.952;2022-12-29T09:14:29;102381.16;;;7.36;57.89
71559;BME280;59382;43.852;25.952;2022-12-29T09:17:14;102378.44;;;7.45;57.45
71559;BME280;59382;43.852;25.952;2022-12-29T09:23:28;102369.22;;;7.48;57.59
71559;BME280;59382;43.852;25.952;2022-12-29T09:25:55;102383.25;;;7.59;57.54
71559;BME280;59382;43.852;25.952;2022-12-29T09:28:28;102373.97;;;7.54;57.62
71559;BME280;59382;43.852;25.952;2022-12-29T09:30:57;102367.59;;;7.55;57.70
71559;BME280;59382;43.852;25.952;2022-12-29T09:33:29;102359.13;;;7.50;57.98
71559;BME280;59382;43.852;25.952;2022-12-29T09:35:58;102351.94;;;7.50;58.24
71559;BME280;59382;43.852;25.952;2022-12-29T09:38:25;102337.97;;;7.47;57.85
71559;BME280;59382;43.852;25.952;2022-12-29T09:41:20;102355.94;;;7.64;58.15
71559;BME280;59382;43.852;25.952;2022-12-29T09:46:42;102357.00;;;7.71;58.27
71559;BME280;59382;43.852;25.952;2022-12-29T09:49:47;102315.72;;;7.54;58.11
71559;BME280;59382;43.852;25.952;2022-12-29T09:52:21;102344.72;;;7.86;58.04
71559;BME280;59382;43.852;25.952;2022-12-29T10:06:27;102334.25;;;8.18;58.16
71559;BME280;59382;43.852;25.952;2022-12-29T10:09:22;102326.81;;;8.30;57.83
71559;BME280;59382;43.852;25.952;2022-12-29T10:17:55;102291.38;;;8.34;57.43
71559;BME280;59382;43.852;25.952;2022-12-29T10:20:50;102307.97;;;8.55;57.33
71559;BME280;59382;43.852;25.952;2022-12-29T10:23:33;102312.09;;;8.75;57.20
71559;BME280;59382;43.852;25.952;2022-12-29T10:26:05;102326.81;;;8.89;56.86
71559;BME280;59382;43.852;25.952;2022-12-29T10:28:46;102331.06;;;8.99;56.43
71559;BME280;59382;43.852;25.952;2022-12-29T10:31:34;102320.59;;;8.96;57.03
71559;BME280;59382;43.852;25.952;2022-12-29T10:34:05;102301.41;;;8.91;56.74
71559;BME280;59382;43.852;25.952;2022-12-29T10:36:47;102310.88;;;9.03;56.96
71559;BME280;59382;43.852;25.952;2022-12-29T10:39:49;102274.47;;;8.91;56.69
71559;BME280;59382;43.852;25.952;2022-12-29T10:42:46;102307.94;;;9.22;56.50
71559;BME280;59382;43.852;25.952;2022-12-29T10:45:18;102300.16;;;9.19;56.61
71559;BME280;59382;43.852;25.952;2022-12-29T10:50:27;102299.78;;;9.06;57.07
71559;BME280;59382;43.852;25.952;2022-12-29T10:53:04;102289.81;;;8.99;57.14
71559;BME280;59382;43.852;25.952;2022-12-29T10:55:38;102264.72;;;8.90;56.96
71559;BME280;59382;43.852;25.952;2022-12-29T10:58:17;102294.38;;;9.06;57.03
71559;BME280;59382;43.852;25.952;2022-12-29T11:00:54;102283.13;;;9.03;57.21
71559;BME280;59382;43.852;25.952;2022-12-29T11:06:37;102236.63;;;8.85;56.94
71559;BME280;59382;43.852;25.952;2022-12-29T11:09:35;102291.41;;;9.17;56.72
71559;BME280;59382;43.852;25.952;2022-12-29T11:12:37;102277.94;;;9.17;56.99
71559;BME280;59382;43.852;25.952;2022-12-29T11:17:50;102246.91;;;8.97;57.06
71559;BME280;59382;43.852;25.952;2022-12-29T11:20:29;102271.53;;;9.18;57.21
71559;BME280;59382;43.852;25.952;2022-12-29T11:23:03;102267.53;;;9.22;57.15
71559;BME280;59382;43.852;25.952;2022-12-29T11:25:32;102252.69;;;9.18;56.98
71559;BME280;59382;43.852;25.952;2022-12-29T11:28:24;102265.84;;;9.37;57.11
71559;BME280;59382;43.852;25.952;2022-12-29T11:31:02;102254.25;;;9.37;57.09
71559;BME280;59382;43.852;25.952;2022-12-29T11:33:32;102275.66;;;9.54;56.63
71559;BME280;59382;43.852;25.952;2022-12-29T11:36:17;102255.59;;;9.57;56.67
71559;BME280;59382;43.852;25.952;2022-12-29T11:38:55;102255.78;;;9.63;56.69
71559;BME280;59382;43.852;25.952;2022-12-29T11:41:26;102239.94;;;9.60;57.04
71559;BME280;59382;43.852;25.952;2022-12-29T11:44:10;102232.34;;;9.56;56.53
71559;BME280;59382;43.852;25.952;2022-12-29T11:46:57;102243.00;;;9.65;56.72
71559;BME280;59382;43.852;25.952;2022-12-29T11:49:28;102232.03;;;9.67;56.88
71559;BME280;59382;43.852;25.952;2022-12-29T11:52:06;102237.56;;;9.73;56.83
71559;BME280;59382;43.852;25.952;2022-12-29T11:54:42;102203.22;;;9.51;57.06
71559;BME280;59382;43.852;25.952;2022-12-29T11:57:34;102241.25;;;9.80;56.86
71559;BME280;59382;43.852;25.952;2022-12-29T12:00:14;102221.41;;;9.73;56.73
71559;BME280;59382;43.852;25.952;2022-12-29T12:05:38;102233.34;;;9.87;56.84
71559;BME280;59382;43.852;25.952;2022-12-29T12:08:11;102222.75;;;9.85;56.65
71559;BME280;59382;43.852;25.952;2022-12-29T12:10:55;102190.75;;;9.66;56.78
71559;BME280;59382;43.852;25.952;2022-12-29T12:16:17;102219.03;;;9.86;56.55
71559;BME280;59382;43.852;25.952;2022-12-29T12:19:02;102221.88;;;9.85;56.54
71559;BME280;59382;43.852;25.952;2022-12-29T12:21:52;102221.53;;;9.88;56.64
71559;BME280;59382;43.852;25.952;2022-12-29T12:32:56;102205.75;;;9.77;56.66
71559;BME280;59382;43.852;25.952;2022-12-29T12:38:41;102217.22;;;9.79;56.54
71559;BME280;59382;43.852;25.952;2022-12-29T12:41:39;102218.88;;;9.80;57.01
71559;BME280;59382;43.852;25.952;2022-12-29T12:49:42;102203.34;;;9.90;56.44
71559;BME280;59382;43.852;25.952;2022-12-29T12:55:16;102200.16;;;9.94;56.23
71559;BME280;59382;43.852;25.952;2022-12-29T13:06:50;102205.72;;;10.01;56.07
71559;BME280;59382;43.852;25.952;2022-12-29T13:09:25;102166.63;;;9.81;56.27
71559;BME280;59382;43.852;25.952;2022-12-29T13:12:14;102202.84;;;10.02;55.81
71559;BME280;59382;43.852;25.952;2022-12-29T13:23:00;102152.84;;;9.76;55.99
71559;BME280;59382;43.852;25.952;2022-12-29T13:25:47;102194.06;;;10.00;55.54
71559;BME280;59382;43.852;25.952;2022-12-29T13:41:48;102185.81;;;10.02;56.30
71559;BME280;59382;43.852;25.952;2022-12-29T13:45:55;102188.34;;;9.95;56.18
71559;BME280;59382;43.852;25.952;2022-12-29T13:57:41;102193.41;;;9.90;56.24
71559;BME280;59382;43.852;25.952;2022-12-29T14:00:18;102181.13;;;9.80;56.33
71559;BME280;59382;43.852;25.952;2022-12-29T14:07:56;102189.06;;;9.81;56.62
71559;BME280;59382;43.852;25.952;2022-12-29T14:10:32;102195.63;;;9.79;56.36
71559;BME280;59382;43.852;25.952;2022-12-29T14:13:20;102201.84;;;9.79;56.37
71559;BME280;59382;43.852;25.952;2022-12-29T14:16:29;102195.47;;;9.72;56.80
71559;BME280;59382;43.852;25.952;2022-12-29T14:19:04;102197.66;;;9.77;56.41
71559;BME280;59382;43.852;25.952;2022-12-29T14:21:32;102201.72;;;9.73;56.45
71559;BME280;59382;43.852;25.952;2022-12-29T14:26:51;102209.78;;;9.73;56.46
71559;BME280;59382;43.852;25.952;2022-12-29T14:31:52;102198.31;;;9.71;56.52
71559;BME280;59382;43.852;25.952;2022-12-29T14:39:38;102203.22;;;9.67;56.50
71559;BME280;59382;43.852;25.952;2022-12-29T14:44:47;102188.06;;;9.58;56.53
71559;BME280;59382;43.852;25.952;2022-12-29T14:47:19;102187.56;;;9.55;56.65
71559;BME280;59382;43.852;25.952;2022-12-29T14:49:46;102174.94;;;9.47;56.56
71559;BME280;59382;43.852;25.952;2022-12-29T14:52:19;102186.88;;;9.45;56.44
71559;BME280;59382;43.852;25.952;2022-12-29T14:54:56;102192.44;;;9.51;56.68
71559;BME280;59382;43.852;25.952;2022-12-29T15:00:05;102199.53;;;9.44;56.49
71559;BME280;59382;43.852;25.952;2022-12-29T15:02:39;102198.84;;;9.42;56.78
71559;BME280;59382;43.852;25.952;2022-12-29T15:05:24;102192.59;;;9.42;56.87
71559;BME280;59382;43.852;25.952;2022-12-29T15:07:52;102166.19;;;9.29;56.38
71559;BME280;59382;43.852;25.952;2022-12-29T15:10:19;102188.91;;;9.43;56.68
71559;BME280;59382;43.852;25.952;2022-12-29T15:12:50;102198.50;;;9.45;56.75
71559;BME280;59382;43.852;25.952;2022-12-29T15:15:22;102197.16;;;9.41;56.82
71559;BME280;59382;43.852;25.952;2022-12-29T15:17:48;102187.06;;;9.35;56.81
71559;BME280;59382;43.852;25.952;2022-12-29T15:20:29;102179.81;;;9.28;56.76
71559;BME280;59382;43.852;25.952;2022-12-29T15:23:09;102196.81;;;9.36;56.62
71559;BME280;59382;43.852;25.952;2022-12-29T15:25:36;102151.00;;;9.12;56.54
71559;BME280;59382;43.852;25.952;2022-12-29T15:28:11;102184.00;;;9.30;56.79
71559;BME280;59382;43.852;25.952;2022-12-29T15:30:51;102190.44;;;9.29;56.61
71559;BME280;59382;43.852;25.952;2022-12-29T15:33:26;102169.03;;;9.12;56.64
71559;BME280;59382;43.852;25.952;2022-12-29T15:35:55;102195.13;;;9.27;56.64
71559;BME280;59382;43.852;25.952;2022-12-29T15:38:30;102202.22;;;9.28;56.98
71559;BME280;59382;43.852;25.952;2022-12-29T15:41:00;102200.50;;;9.27;57.12
71559;BME280;59382;43.852;25.952;2022-12-29T15:46:03;102191.75;;;9.17;56.73
71559;BME280;59382;43.852;25.952;2022-12-29T15:48:30;102206.22;;;9.24;56.84